createdAt,value
2022-10-05T00:02:15.106Z,10.05
2022-10-05T00:04:41.769Z,11.88
2022-10-05T00:07:14.083Z,10.00
2022-10-05T00:09:41.167Z,14.45
2022-10-05T00:12:15.073Z,9.65
2022-10-05T00:14:42.071Z,7.70
2022-10-05T00:17:15.244Z,13.75
2022-10-05T00:19:43.018Z,11.75
2022-10-05T00:22:14.267Z,7.72
2022-10-05T00:24:40.955Z,10.82
2022-10-05T00:27:15.214Z,5.80
2022-10-05T00:29:41.827Z,8.65
2022-10-05T00:32:09.196Z,10.55
2022-10-05T00:34:37.645Z,6.68
2022-10-05T00:37:04.777Z,7.88
2022-10-05T00:39:32.013Z,6.88
2022-10-05T00:42:15.606Z,7.25
2022-10-05T00:44:45.859Z,14.63
2022-10-05T00:47:27.601Z,7.00
2022-10-05T00:50:20.968Z,10.30
2022-10-05T00:52:54.714Z,8.93
2022-10-05T00:55:32.062Z,8.05
2022-10-05T00:58:08.074Z,11.80
2022-10-05T01:00:45.433Z,12.38
2022-10-05T01:03:18.797Z,6.30
2022-10-05T01:06:00.696Z,8.70
2022-10-05T01:08:39.702Z,9.50
2022-10-05T01:11:13.547Z,5.85
2022-10-05T01:13:49.640Z,14.55
2022-10-05T01:16:24.507Z,8.15
2022-10-05T01:18:59.046Z,8.85
2022-10-05T01:21:28.623Z,8.73
2022-10-05T01:27:21.127Z,8.80
2022-10-05T01:29:54.757Z,6.82
2022-10-05T01:32:28.955Z,12.77
2022-10-05T01:35:06.005Z,5.43
2022-10-05T01:37:41.992Z,7.95
2022-10-05T01:40:17.539Z,9.93
2022-10-05T01:42:58.399Z,6.90
2022-10-05T01:45:35.242Z,8.60
2022-10-05T01:48:08.470Z,7.70
2022-10-05T01:50:47.381Z,6.97
2022-10-05T01:53:27.763Z,7.18
2022-10-05T01:56:01.771Z,6.43
2022-10-05T01:58:36.916Z,8.40
2022-10-05T02:01:12.490Z,6.82
2022-10-05T02:03:44.834Z,7.95
2022-10-05T02:06:15.213Z,7.82
2022-10-05T02:08:46.773Z,9.15
2022-10-05T02:11:14.628Z,5.93
2022-10-05T02:13:44.418Z,9.18
2022-10-05T02:16:17.024Z,9.10
2022-10-05T02:18:50.324Z,8.25
2022-10-05T02:21:18.337Z,7.10
2022-10-05T02:23:47.078Z,5.45
2022-10-05T02:26:13.781Z,10.00
2022-10-05T02:28:46.354Z,6.13
2022-10-05T02:31:17.885Z,7.38
2022-10-05T02:33:44.514Z,13.25
2022-10-05T02:36:15.209Z,8.68
2022-10-05T02:38:55.567Z,6.65
2022-10-05T02:41:33.396Z,7.40
2022-10-05T02:44:10.667Z,8.00
2022-10-05T02:46:47.293Z,7.70
2022-10-05T02:49:23.485Z,6.40
2022-10-05T02:51:58.051Z,9.40
2022-10-05T02:59:35.878Z,5.63
2022-10-05T03:45:18.236Z,6.95
2022-10-05T03:50:31.664Z,7.07
2022-10-05T03:53:03.793Z,12.40
2022-10-05T03:55:36.756Z,6.72
2022-10-05T03:58:11.224Z,8.35
2022-10-05T04:00:40.913Z,7.82
2022-10-05T04:03:15.719Z,11.20
2022-10-05T04:05:47.643Z,10.88
2022-10-05T04:08:21.581Z,8.50
2022-10-05T04:10:50.740Z,5.80
2022-10-05T04:13:23.562Z,5.78
2022-10-05T04:15:57.543Z,8.95
2022-10-05T04:18:28.661Z,5.80
2022-10-05T04:20:59.873Z,12.50
2022-10-05T04:23:39.507Z,11.85
2022-10-05T04:26:11.653Z,8.65
2022-10-05T04:28:54.122Z,7.88
2022-10-05T04:31:35.581Z,13.10
2022-10-05T04:34:14.485Z,14.90
2022-10-05T04:36:48.875Z,23.08
2022-10-05T04:39:23.716Z,10.30
2022-10-05T04:42:02.810Z,11.50
2022-10-05T04:44:42.883Z,9.50
2022-10-05T04:47:28.985Z,11.35
2022-10-05T04:50:12.406Z,8.88
2022-10-05T04:52:47.196Z,6.28
2022-10-05T04:55:25.046Z,6.30
2022-10-05T04:58:01.402Z,9.98
2022-10-05T05:00:33.949Z,10.20
2022-10-05T05:03:23.980Z,10.60
2022-10-05T05:06:18.239Z,8.70
2022-10-05T05:09:18.712Z,7.07
2022-10-05T05:11:56.196Z,11.85
2022-10-05T05:14:39.106Z,13.27
2022-10-05T05:17:17.923Z,5.90
2022-10-05T05:19:53.566Z,8.15
2022-10-05T05:22:29.161Z,11.05
2022-10-05T05:25:16.758Z,8.33
2022-10-05T05:27:48.486Z,10.10
2022-10-05T05:30:21.953Z,9.80
2022-10-05T05:33:06.912Z,6.78
2022-10-05T05:36:13.841Z,7.35
2022-10-05T05:38:48.314Z,9.75
2022-10-05T05:41:20.243Z,9.20
2022-10-05T05:43:58.248Z,8.35
2022-10-05T05:46:58.307Z,12.02
2022-10-05T05:49:24.095Z,7.78
2022-10-05T05:51:57.607Z,7.13
2022-10-05T05:54:31.508Z,9.43
2022-10-05T05:57:06.473Z,5.47
2022-10-05T05:59:44.242Z,8.88
2022-10-05T06:02:14.913Z,7.28
2022-10-05T06:04:45.888Z,12.67
2022-10-05T06:07:18.908Z,7.30
2022-10-05T06:09:54.457Z,14.80
2022-10-05T06:12:25.047Z,9.32
2022-10-05T06:14:55.998Z,7.30
2022-10-05T06:17:26.858Z,11.40
2022-10-05T06:20:01.102Z,10.60
2022-10-05T06:22:38.754Z,9.02
2022-10-05T06:25:23.173Z,7.18
2022-10-05T06:28:03.441Z,5.85
2022-10-05T06:30:44.921Z,17.45
2022-10-05T06:33:23.931Z,14.23
2022-10-05T06:36:06.892Z,13.95
2022-10-05T06:39:15.256Z,11.57
2022-10-05T06:41:58.797Z,10.15
2022-10-05T06:44:32.615Z,13.80
2022-10-05T06:47:07.406Z,9.38
2022-10-05T06:49:43.051Z,13.07
2022-10-05T06:52:19.686Z,11.32
2022-10-05T06:54:54.759Z,9.50
2022-10-05T06:57:49.180Z,16.48
2022-10-05T07:00:21.103Z,15.48
2022-10-05T07:02:55.669Z,11.05
2022-10-05T07:05:45.215Z,14.20
2022-10-05T07:08:15.333Z,27.65
2022-10-05T07:10:54.077Z,17.98
2022-10-05T07:13:42.483Z,16.40
2022-10-05T07:16:18.559Z,14.75
2022-10-05T07:18:53.221Z,23.27
2022-10-05T07:21:28.630Z,19.55
2022-10-05T07:24:04.590Z,19.45
2022-10-05T07:26:37.486Z,22.55
2022-10-05T07:29:29.087Z,19.77
2022-10-05T07:32:03.539Z,19.33
2022-10-05T07:34:39.862Z,20.08
2022-10-05T07:37:12.394Z,12.00
2022-10-05T07:40:00.049Z,15.38
2022-10-05T07:42:48.917Z,13.10
2022-10-05T07:45:27.541Z,9.82
2022-10-05T07:47:56.246Z,16.00
2022-10-05T07:50:27.622Z,13.57
2022-10-05T07:52:57.649Z,10.30
2022-10-05T07:55:26.269Z,7.45
2022-10-05T07:58:06.155Z,9.07
2022-10-05T08:01:04.246Z,12.95
2022-10-05T08:03:42.848Z,10.75
2022-10-05T08:06:12.039Z,14.23
2022-10-05T08:08:47.949Z,13.82
2022-10-05T08:11:18.848Z,12.77
2022-10-05T08:13:51.711Z,9.85
2022-10-05T08:16:20.112Z,12.98
2022-10-05T08:18:56.196Z,10.57
2022-10-05T08:21:27.545Z,9.98
2022-10-05T08:23:57.850Z,16.77
2022-10-05T08:26:31.602Z,11.80
2022-10-05T08:29:13.658Z,12.75
2022-10-05T08:31:46.849Z,9.13
2022-10-05T08:34:22.583Z,10.93
2022-10-05T08:36:59.373Z,7.55
2022-10-05T08:39:30.565Z,13.88
2022-10-05T08:42:27.388Z,5.63
2022-10-05T08:45:26.112Z,7.10
2022-10-05T08:48:14.906Z,7.32
2022-10-05T08:51:12.496Z,11.80
2022-10-05T08:54:20.731Z,9.15
2022-10-05T08:56:59.676Z,9.48
2022-10-05T08:59:52.484Z,7.18
2022-10-05T09:02:28.317Z,7.00
2022-10-05T09:05:18.001Z,5.30
2022-10-05T09:08:03.337Z,6.50
2022-10-05T09:10:58.106Z,5.28
2022-10-05T09:14:11.063Z,6.05
2022-10-05T09:17:09.366Z,12.57
2022-10-05T09:19:59.890Z,5.50
2022-10-05T09:22:45.685Z,7.45
2022-10-05T09:25:22.781Z,7.95
2022-10-05T09:27:56.181Z,3.90
2022-10-05T09:30:27.357Z,5.15
2022-10-05T09:33:31.553Z,4.82
2022-10-05T09:36:38.046Z,5.22
2022-10-05T09:39:41.447Z,3.72
2022-10-05T09:42:43.535Z,3.33
2022-10-05T09:45:36.181Z,6.88
2022-10-05T09:48:34.570Z,4.10
2022-10-05T09:51:46.130Z,2.95
2022-10-05T09:54:54.445Z,3.13
2022-10-05T09:57:56.653Z,8.05
2022-10-05T10:00:37.139Z,2.80
2022-10-05T10:03:28.809Z,6.55
2022-10-05T10:06:06.853Z,6.10
2022-10-05T10:08:45.687Z,2.30
2022-10-05T10:11:28.968Z,8.07
2022-10-05T10:14:20.278Z,4.22
2022-10-05T10:17:00.240Z,4.55
2022-10-05T10:20:01.365Z,1.98
2022-10-05T10:23:04.557Z,2.40
2022-10-05T10:25:48.135Z,2.85
2022-10-05T10:28:34.960Z,4.80
2022-10-05T10:31:41.151Z,1.80
2022-10-05T10:34:36.904Z,5.22
2022-10-05T10:37:33.460Z,2.88
2022-10-05T10:40:20.212Z,1.85
2022-10-05T10:43:04.761Z,4.85
2022-10-05T10:45:48.110Z,2.03
2022-10-05T10:48:50.072Z,13.00
2022-10-05T10:51:24.852Z,6.00
2022-10-05T10:54:34.886Z,2.75
2022-10-05T10:57:07.019Z,2.92
2022-10-05T11:00:19.696Z,4.55
2022-10-05T11:03:15.876Z,5.07
2022-10-05T11:06:18.371Z,1.98
2022-10-05T11:09:14.950Z,1.90
2022-10-05T11:12:19.671Z,2.63
2022-10-05T11:15:09.239Z,2.83
2022-10-05T11:17:59.625Z,2.42
2022-10-05T11:20:59.833Z,3.85
2022-10-05T11:23:50.013Z,3.30
2022-10-05T11:26:42.249Z,4.47
2022-10-05T11:29:41.328Z,1.90
2022-10-05T11:32:39.196Z,3.78
2022-10-05T11:35:32.512Z,1.55
2022-10-05T11:38:15.204Z,2.88
2022-10-05T11:41:29.047Z,2.80
2022-10-05T11:44:43.229Z,1.10
2022-10-05T11:47:17.148Z,1.50
2022-10-05T11:49:52.296Z,1.67
2022-10-05T11:52:24.437Z,4.85
2022-10-05T11:55:13.321Z,4.10
2022-10-05T11:57:50.396Z,4.93
2022-10-05T12:00:28.574Z,1.20
2022-10-05T12:03:35.730Z,4.32
2022-10-05T12:06:15.775Z,5.03
2022-10-05T12:09:01.223Z,3.95
2022-10-05T12:12:02.813Z,2.35
2022-10-05T12:14:48.510Z,5.05
2022-10-05T12:17:29.126Z,1.50
2022-10-05T12:20:00.385Z,2.75
2022-10-05T12:22:40.829Z,1.83
2022-10-05T12:25:27.610Z,4.63
2022-10-05T12:28:14.721Z,1.50
2022-10-05T12:31:13.960Z,1.30
2022-10-05T12:33:50.707Z,1.02
2022-10-05T12:36:59.219Z,1.65
2022-10-05T12:39:32.357Z,1.20
2022-10-05T12:43:11.430Z,1.88
2022-10-05T12:56:44.121Z,1.88
2022-10-05T13:06:45.288Z,2.50
2022-10-05T13:09:47.317Z,2.35
2022-10-05T13:13:23.197Z,1.95
2022-10-05T13:16:11.796Z,1.27
2022-10-05T13:19:21.557Z,1.40
2022-10-05T13:23:08.467Z,2.92
2022-10-05T13:26:01.419Z,5.88
2022-10-05T13:32:12.151Z,3.10
2022-10-05T13:39:15.372Z,3.10
2022-10-05T13:44:59.447Z,1.08
2022-10-05T13:47:56.282Z,2.00
2022-10-05T13:50:33.904Z,2.10
2022-10-05T13:53:34.011Z,1.58
2022-10-05T13:56:38.827Z,1.27
2022-10-05T13:59:43.745Z,1.45
2022-10-05T14:02:52.127Z,1.65
2022-10-05T14:06:05.421Z,1.33
2022-10-05T14:12:37.010Z,3.03
2022-10-05T14:15:26.786Z,1.30
2022-10-05T14:18:04.103Z,1.58
2022-10-05T14:20:41.570Z,3.92
2022-10-05T14:23:18.479Z,3.10
2022-10-05T14:25:59.605Z,3.03
2022-10-05T14:28:30.419Z,5.78
2022-10-05T14:31:13.788Z,2.55
2022-10-05T14:33:52.011Z,1.77
2022-10-05T14:36:35.602Z,2.08
2022-10-05T14:39:02.981Z,4.22
2022-10-05T14:41:46.343Z,1.83
2022-10-05T14:44:47.298Z,1.50
2022-10-05T14:47:21.031Z,2.20
2022-10-05T14:49:52.536Z,3.53
2022-10-05T14:52:51.661Z,1.20
2022-10-05T14:55:44.184Z,1.30
2022-10-05T14:58:59.189Z,5.88
2022-10-05T15:01:34.880Z,1.50
2022-10-05T15:04:35.037Z,3.05
2022-10-05T15:07:18.655Z,1.35
2022-10-05T15:10:21.763Z,2.33
2022-10-05T15:12:50.876Z,2.63
2022-10-05T15:15:28.462Z,2.20
2022-10-05T15:18:15.101Z,1.50
2022-10-05T15:20:55.964Z,2.88
2022-10-05T15:23:36.178Z,2.30
2022-10-05T15:26:40.860Z,5.65
2022-10-05T15:29:36.966Z,1.80
2022-10-05T15:32:22.993Z,1.27
2022-10-05T15:35:11.410Z,2.30
2022-10-05T15:40:52.756Z,3.53
2022-10-05T15:43:31.440Z,1.60
2022-10-05T15:46:15.964Z,1.67
2022-10-05T15:48:52.988Z,2.45
2022-10-05T15:51:38.631Z,4.25
2022-10-05T15:54:38.434Z,2.15
2022-10-05T15:57:20.225Z,3.22
2022-10-05T16:00:11.138Z,3.92
2022-10-05T16:02:54.876Z,4.47
2022-10-05T16:05:33.784Z,1.60
2022-10-05T16:08:01.091Z,2.38
2022-10-05T16:10:39.486Z,5.53
2022-10-05T16:13:35.110Z,2.17
2022-10-05T16:16:21.452Z,2.13
2022-10-05T16:19:03.345Z,2.03
2022-10-05T16:21:40.271Z,4.13
2022-10-05T16:24:24.607Z,3.88
2022-10-05T16:29:50.780Z,2.72
2022-10-05T16:36:07.829Z,3.65
2022-10-05T16:38:58.301Z,7.63
2022-10-05T16:42:07.410Z,4.70
2022-10-05T16:45:10.410Z,6.10
2022-10-05T16:47:46.997Z,3.45
2022-10-05T16:50:40.769Z,3.63
2022-10-05T16:53:34.154Z,5.30
2022-10-05T16:56:09.206Z,4.65
2022-10-05T16:59:08.285Z,8.05
2022-10-05T17:01:57.762Z,9.25
2022-10-05T17:04:41.351Z,7.25
2022-10-05T17:07:42.126Z,7.95
2022-10-05T17:10:48.155Z,9.48
2022-10-05T17:13:39.571Z,6.43
2022-10-05T17:16:19.707Z,3.75
2022-10-05T17:19:21.124Z,7.10
2022-10-05T17:21:57.589Z,4.90
2022-10-05T17:24:37.131Z,8.75
2022-10-05T17:27:16.752Z,8.05
2022-10-05T17:29:50.707Z,8.82
2022-10-05T17:32:57.759Z,12.25
2022-10-05T17:35:58.468Z,8.73
2022-10-05T17:38:51.233Z,7.53
2022-10-05T17:41:30.099Z,11.65
2022-10-05T17:44:20.695Z,6.43
2022-10-05T17:46:49.706Z,7.70
2022-10-05T17:49:46.912Z,7.40
2022-10-05T17:52:41.557Z,10.43
2022-10-05T17:55:38.446Z,8.68
2022-10-05T17:58:57.124Z,5.75
2022-10-05T18:01:45.530Z,6.22
2022-10-05T18:04:50.259Z,7.20
2022-10-05T18:07:58.991Z,6.57
2022-10-05T18:11:14.584Z,13.98
2022-10-05T18:17:45.231Z,9.55
2022-10-05T18:20:32.817Z,7.70
2022-10-05T18:23:29.684Z,9.00
2022-10-05T18:26:16.254Z,8.68
2022-10-05T18:29:19.598Z,12.00
2022-10-05T18:31:57.170Z,8.15
2022-10-05T18:34:38.587Z,9.90
2022-10-05T18:37:28.063Z,12.45
2022-10-05T18:40:13.095Z,8.45
2022-10-05T18:42:48.471Z,16.40
2022-10-05T18:45:24.584Z,9.02
2022-10-05T18:48:06.757Z,10.90
2022-10-05T18:50:43.803Z,9.57
2022-10-05T18:53:31.624Z,11.13
2022-10-05T18:56:14.475Z,13.00
2022-10-05T18:58:56.777Z,11.45
2022-10-05T19:02:03.812Z,16.38
2022-10-05T19:04:43.647Z,13.57
2022-10-05T19:07:28.395Z,16.65
2022-10-05T19:10:08.320Z,17.73
2022-10-05T19:12:52.775Z,12.65
2022-10-05T19:15:28.342Z,22.35
2022-10-05T19:18:35.077Z,13.95
2022-10-05T19:21:16.651Z,11.18
2022-10-05T19:24:23.360Z,7.82
2022-10-05T19:27:00.887Z,11.00
2022-10-05T19:29:44.605Z,10.98
2022-10-05T19:32:23.114Z,9.05
2022-10-05T19:35:14.252Z,10.03
2022-10-05T19:37:50.507Z,11.88
2022-10-05T19:40:26.174Z,14.23
2022-10-05T19:43:17.994Z,11.85
2022-10-05T19:45:58.637Z,7.75
2022-10-05T19:48:32.138Z,9.68
2022-10-05T19:51:01.556Z,9.02
2022-10-05T19:53:36.233Z,9.23
2022-10-05T19:56:17.148Z,8.75
2022-10-05T19:58:45.827Z,8.05
2022-10-05T20:01:22.882Z,9.73
2022-10-05T20:03:53.791Z,9.15
2022-10-05T20:06:21.570Z,9.23
2022-10-05T20:08:56.685Z,12.07
2022-10-05T20:11:28.534Z,10.98
2022-10-05T20:14:19.445Z,9.35
2022-10-05T20:16:46.193Z,9.93
2022-10-05T20:19:35.160Z,13.30
2022-10-05T20:22:22.914Z,8.63
2022-10-05T20:24:51.754Z,5.65
2022-10-05T20:27:36.607Z,8.68
2022-10-05T20:30:04.015Z,10.70
2022-10-05T20:32:33.946Z,8.27
2022-10-05T20:35:01.309Z,8.20
2022-10-05T20:37:28.372Z,8.45
2022-10-05T20:39:55.381Z,6.55
2022-10-05T20:42:22.271Z,10.90
2022-10-05T20:44:55.836Z,8.32
2022-10-05T20:47:23.673Z,7.32
2022-10-05T20:49:53.666Z,11.10
2022-10-05T20:52:21.373Z,6.90
2022-10-05T20:54:48.105Z,8.15
2022-10-05T20:57:14.887Z,14.70
2022-10-05T20:59:44.775Z,8.20
2022-10-05T21:02:38.612Z,14.38
2022-10-05T21:05:09.189Z,9.32
2022-10-05T21:07:36.077Z,12.48
2022-10-05T21:10:05.803Z,11.60
2022-10-05T21:12:32.633Z,9.63
2022-10-05T21:14:59.252Z,9.80
2022-10-05T21:17:27.315Z,7.45
2022-10-05T21:19:53.996Z,10.07
2022-10-05T21:22:22.195Z,8.52
2022-10-05T21:24:48.800Z,9.02
2022-10-05T21:27:15.372Z,10.30
2022-10-05T21:29:42.068Z,10.90
2022-10-05T21:32:08.867Z,10.35
2022-10-05T21:34:38.321Z,10.88
2022-10-05T21:39:31.412Z,9.27
2022-10-05T21:41:58.013Z,11.55
2022-10-05T21:44:24.918Z,6.85
2022-10-05T21:46:51.956Z,7.85
2022-10-05T21:49:19.834Z,8.02
2022-10-05T21:51:50.346Z,6.63
2022-10-05T21:54:21.149Z,9.52
2022-10-05T21:56:50.675Z,8.43
2022-10-05T21:59:20.124Z,14.40
2022-10-05T22:04:13.310Z,13.48
2022-10-05T22:06:39.927Z,14.25
2022-10-05T22:09:07.911Z,10.18
2022-10-05T22:11:34.704Z,10.73
2022-10-05T22:14:01.348Z,12.65
2022-10-05T22:16:29.571Z,10.60
2022-10-05T22:18:56.219Z,10.15
2022-10-05T22:21:22.880Z,10.63
2022-10-05T22:23:49.814Z,13.73
2022-10-05T22:26:21.277Z,10.50
2022-10-05T22:28:48.106Z,13.05
2022-10-05T22:31:15.360Z,11.82
2022-10-05T22:33:42.021Z,7.88
2022-10-05T22:36:09.599Z,10.82
2022-10-05T22:38:36.454Z,8.90
2022-10-05T22:41:03.120Z,18.08
2022-10-05T22:43:31.081Z,11.77
2022-10-05T22:45:57.737Z,16.50
2022-10-05T22:48:24.451Z,14.85
2022-10-05T22:50:51.052Z,12.35
2022-10-05T22:53:17.952Z,12.13
2022-10-05T22:55:44.639Z,12.45
2022-10-05T22:58:11.228Z,16.20
2022-10-05T23:00:57.649Z,8.25
2022-10-05T23:03:25.151Z,10.68
2022-10-05T23:05:56.332Z,14.93
2022-10-05T23:08:23.011Z,12.20
2022-10-05T23:10:49.671Z,13.80
2022-10-05T23:13:16.246Z,11.32
2022-10-05T23:15:44.253Z,13.60
2022-10-05T23:18:11.674Z,14.68
2022-10-05T23:20:38.218Z,10.40
2022-10-05T23:23:04.870Z,20.08
2022-10-05T23:25:31.559Z,16.05
2022-10-05T23:27:58.186Z,16.48
2022-10-05T23:30:24.963Z,15.35
2022-10-05T23:32:53.234Z,17.85
2022-10-05T23:35:19.877Z,15.02
2022-10-05T23:37:46.504Z,12.93
2022-10-05T23:40:14.054Z,12.93
2022-10-05T23:42:41.003Z,15.52
2022-10-05T23:45:08.803Z,14.95
2022-10-05T23:47:35.786Z,15.32
2022-10-05T23:50:05.603Z,22.65
2022-10-05T23:52:32.188Z,17.42
2022-10-05T23:54:59.124Z,14.57
2022-10-05T23:57:25.784Z,13.20
2022-10-05T23:59:52.582Z,18.70
